sensor_id;sensor_type;location;lat;lon;timestamp;temperature;humidity
24144;DHT22;12307;50.828;6.080;2022-09-09T00:02:06;24.90;61.50
24144;DHT22;12307;50.828;6.080;2022-09-09T00:04:37;24.80;61.40
24144;DHT22;12307;50.828;6.080;2022-09-09T00:07:06;24.90;61.50
24144;DHT22;12307;50.828;6.080;2022-09-09T00:09:40;24.90;61.50
24144;DHT22;12307;50.828;6.080;2022-09-09T00:12:15;24.80;61.50
24144;DHT22;12307;50.828;6.080;2022-09-09T00:14:48;24.80;61.40
24144;DHT22;12307;50.828;6.080;2022-09-09T00:17:30;24.80;61.50
24144;DHT22;12307;50.828;6.080;2022-09-09T00:20:03;24.80;61.50
24144;DHT22;12307;50.828;6.080;2022-09-09T00:22:36;24.80;61.50
24144;DHT22;12307;50.828;6.080;2022-09-09T00:25:11;24.80;61.50
24144;DHT22;12307;50.828;6.080;2022-09-09T00:27:43;24.80;61.50
24144;DHT22;12307;50.828;6.080;2022-09-09T00:30:16;24.80;61.50
24144;DHT22;12307;50.828;6.080;2022-09-09T00:32:45;24.80;61.50
24144;DHT22;12307;50.828;6.080;2022-09-09T00:35:18;24.80;61.60
24144;DHT22;12307;50.828;6.080;2022-09-09T00:37:48;24.80;61.50
24144;DHT22;12307;50.828;6.080;2022-09-09T00:40:22;24.80;61.60
24144;DHT22;12307;50.828;6.080;2022-09-09T00:42:54;24.80;61.60
24144;DHT22;12307;50.828;6.080;2022-09-09T00:45:41;24.80;61.60
24144;DHT22;12307;50.828;6.080;2022-09-09T00:48:13;24.80;61.60
24144;DHT22;12307;50.828;6.080;2022-09-09T00:50:45;24.80;61.60
24144;DHT22;12307;50.828;6.080;2022-09-09T00:53:23;24.80;61.70
24144;DHT22;12307;50.828;6.080;2022-09-09T00:55:56;24.80;61.60
24144;DHT22;12307;50.828;6.080;2022-09-09T00:58:25;24.70;61.60
24144;DHT22;12307;50.828;6.080;2022-09-09T01:00:56;24.70;61.60
24144;DHT22;12307;50.828;6.080;2022-09-09T01:03:33;24.70;61.60
24144;DHT22;12307;50.828;6.080;2022-09-09T01:06:12;24.70;61.70
24144;DHT22;12307;50.828;6.080;2022-09-09T01:08:49;24.70;61.70
24144;DHT22;12307;50.828;6.080;2022-09-09T01:11:20;24.70;61.70
24144;DHT22;12307;50.828;6.080;2022-09-09T01:13:53;24.70;61.70
24144;DHT22;12307;50.828;6.080;2022-09-09T01:16:21;24.70;61.70
24144;DHT22;12307;50.828;6.080;2022-09-09T01:18:51;24.70;61.70
24144;DHT22;12307;50.828;6.080;2022-09-09T01:21:25;24.70;61.70
24144;DHT22;12307;50.828;6.080;2022-09-09T01:24:08;24.70;61.70
24144;DHT22;12307;50.828;6.080;2022-09-09T01:26:41;24.70;61.70
24144;DHT22;12307;50.828;6.080;2022-09-09T01:29:08;24.70;61.70
24144;DHT22;12307;50.828;6.080;2022-09-09T01:31:38;24.70;61.80
24144;DHT22;12307;50.828;6.080;2022-09-09T01:34:09;24.70;61.70
24144;DHT22;12307;50.828;6.080;2022-09-09T01:36:38;24.70;61.80
24144;DHT22;12307;50.828;6.080;2022-09-09T01:39:06;24.70;61.80
24144;DHT22;12307;50.828;6.080;2022-09-09T01:41:32;24.70;61.80
24144;DHT22;12307;50.828;6.080;2022-09-09T01:43:59;24.70;61.80
24144;DHT22;12307;50.828;6.080;2022-09-09T01:46:25;24.70;61.80
24144;DHT22;12307;50.828;6.080;2022-09-09T01:48:51;24.70;61.80
24144;DHT22;12307;50.828;6.080;2022-09-09T01:51:18;24.70;61.80
24144;DHT22;12307;50.828;6.080;2022-09-09T01:53:45;24.70;61.80
24144;DHT22;12307;50.828;6.080;2022-09-09T01:56:30;24.70;61.80
24144;DHT22;12307;50.828;6.080;2022-09-09T01:59:14;24.70;61.70
24144;DHT22;12307;50.828;6.080;2022-09-09T02:01:51;24.70;61.80
24144;DHT22;12307;50.828;6.080;2022-09-09T02:04:32;24.70;61.90
24144;DHT22;12307;50.828;6.080;2022-09-09T02:07:00;24.70;61.80
24144;DHT22;12307;50.828;6.080;2022-09-09T02:09:29;24.70;61.90
24144;DHT22;12307;50.828;6.080;2022-09-09T02:11:59;24.70;61.90
24144;DHT22;12307;50.828;6.080;2022-09-09T02:14:30;24.60;61.80
24144;DHT22;12307;50.828;6.080;2022-09-09T02:17:01;24.70;61.90
24144;DHT22;12307;50.828;6.080;2022-09-09T02:19:31;24.70;61.90
24144;DHT22;12307;50.828;6.080;2022-09-09T02:21:59;24.70;61.90
24144;DHT22;12307;50.828;6.080;2022-09-09T02:24:26;24.60;61.80
24144;DHT22;12307;50.828;6.080;2022-09-09T02:26:54;24.60;61.80
24144;DHT22;12307;50.828;6.080;2022-09-09T02:29:23;24.60;61.80
24144;DHT22;12307;50.828;6.080;2022-09-09T02:31:53;24.60;61.90
24144;DHT22;12307;50.828;6.080;2022-09-09T02:34:21;24.60;62.00
24144;DHT22;12307;50.828;6.080;2022-09-09T02:36:51;24.60;61.80
24144;DHT22;12307;50.828;6.080;2022-09-09T02:39:19;24.60;62.00
24144;DHT22;12307;50.828;6.080;2022-09-09T02:41:45;24.60;61.90
24144;DHT22;12307;50.828;6.080;2022-09-09T02:44:11;24.60;61.80
24144;DHT22;12307;50.828;6.080;2022-09-09T02:49:34;24.60;62.00
24144;DHT22;12307;50.828;6.080;2022-09-09T02:52:05;24.60;62.00
24144;DHT22;12307;50.828;6.080;2022-09-09T02:54:33;24.60;62.00
24144;DHT22;12307;50.828;6.080;2022-09-09T02:57:02;24.60;62.00
24144;DHT22;12307;50.828;6.080;2022-09-09T02:59:29;24.60;62.00
24144;DHT22;12307;50.828;6.080;2022-09-09T03:01:55;24.60;62.00
24144;DHT22;12307;50.828;6.080;2022-09-09T03:04:21;24.60;62.00
24144;DHT22;12307;50.828;6.080;2022-09-09T03:06:48;24.60;62.00
24144;DHT22;12307;50.828;6.080;2022-09-09T03:09:14;24.60;62.00
24144;DHT22;12307;50.828;6.080;2022-09-09T03:11:40;24.60;62.90
24144;DHT22;12307;50.828;6.080;2022-09-09T03:14:06;24.60;62.00
24144;DHT22;12307;50.828;6.080;2022-09-09T03:16:31;24.60;62.00
24144;DHT22;12307;50.828;6.080;2022-09-09T03:18:59;24.60;62.10
24144;DHT22;12307;50.828;6.080;2022-09-09T03:21:25;24.60;62.10
24144;DHT22;12307;50.828;6.080;2022-09-09T03:23:52;24.60;62.00
24144;DHT22;12307;50.828;6.080;2022-09-09T03:26:17;24.60;62.10
24144;DHT22;12307;50.828;6.080;2022-09-09T03:28:43;24.60;62.10
24144;DHT22;12307;50.828;6.080;2022-09-09T03:31:10;24.60;62.10
24144;DHT22;12307;50.828;6.080;2022-09-09T03:33:36;24.60;62.00
24144;DHT22;12307;50.828;6.080;2022-09-09T03:36:02;24.60;62.10
24144;DHT22;12307;50.828;6.080;2022-09-09T03:38:28;24.60;62.10
24144;DHT22;12307;50.828;6.080;2022-09-09T03:40:56;24.60;62.00
24144;DHT22;12307;50.828;6.080;2022-09-09T03:43:26;24.60;62.10
24144;DHT22;12307;50.828;6.080;2022-09-09T03:45:53;24.50;62.00
24144;DHT22;12307;50.828;6.080;2022-09-09T03:48:19;24.50;62.00
24144;DHT22;12307;50.828;6.080;2022-09-09T03:50:45;24.50;62.00
24144;DHT22;12307;50.828;6.080;2022-09-09T03:53:11;24.50;62.10
24144;DHT22;12307;50.828;6.080;2022-09-09T03:55:37;24.50;62.00
24144;DHT22;12307;50.828;6.080;2022-09-09T03:58:03;24.60;62.00
24144;DHT22;12307;50.828;6.080;2022-09-09T04:00:29;24.50;62.00
24144;DHT22;12307;50.828;6.080;2022-09-09T04:02:55;24.50;62.10
24144;DHT22;12307;50.828;6.080;2022-09-09T04:05:22;24.50;62.00
24144;DHT22;12307;50.828;6.080;2022-09-09T04:07:47;24.50;62.10
24144;DHT22;12307;50.828;6.080;2022-09-09T04:10:13;24.50;62.00
24144;DHT22;12307;50.828;6.080;2022-09-09T04:12:39;24.60;62.10
24144;DHT22;12307;50.828;6.080;2022-09-09T04:15:07;24.50;62.10
24144;DHT22;12307;50.828;6.080;2022-09-09T04:17:32;24.50;62.00
24144;DHT22;12307;50.828;6.080;2022-09-09T04:19:58;24.50;62.10
24144;DHT22;12307;50.828;6.080;2022-09-09T04:22:24;24.50;62.00
24144;DHT22;12307;50.828;6.080;2022-09-09T04:24:49;24.50;62.00
24144;DHT22;12307;50.828;6.080;2022-09-09T04:27:15;24.50;62.10
24144;DHT22;12307;50.828;6.080;2022-09-09T04:29:41;24.50;62.10
24144;DHT22;12307;50.828;6.080;2022-09-09T04:32:08;24.50;62.00
24144;DHT22;12307;50.828;6.080;2022-09-09T04:34:33;24.50;62.00
24144;DHT22;12307;50.828;6.080;2022-09-09T04:36:59;24.50;62.10
24144;DHT22;12307;50.828;6.080;2022-09-09T04:39:25;24.50;62.10
24144;DHT22;12307;50.828;6.080;2022-09-09T04:41:51;24.50;62.10
24144;DHT22;12307;50.828;6.080;2022-09-09T04:44:17;24.50;62.10
24144;DHT22;12307;50.828;6.080;2022-09-09T04:46:42;24.50;62.00
24144;DHT22;12307;50.828;6.080;2022-09-09T04:49:09;24.50;62.00
24144;DHT22;12307;50.828;6.080;2022-09-09T04:51:35;24.50;62.10
24144;DHT22;12307;50.828;6.080;2022-09-09T04:54:01;24.50;62.10
24144;DHT22;12307;50.828;6.080;2022-09-09T04:56:26;24.50;62.00
24144;DHT22;12307;50.828;6.080;2022-09-09T04:58:52;24.50;62.00
24144;DHT22;12307;50.828;6.080;2022-09-09T05:01:19;24.50;62.00
24144;DHT22;12307;50.828;6.080;2022-09-09T05:03:46;24.50;62.00
24144;DHT22;12307;50.828;6.080;2022-09-09T05:06:16;24.50;62.00
24144;DHT22;12307;50.828;6.080;2022-09-09T05:08:43;24.50;62.10
24144;DHT22;12307;50.828;6.080;2022-09-09T05:11:16;24.50;62.10
24144;DHT22;12307;50.828;6.080;2022-09-09T05:13:42;24.50;62.00
24144;DHT22;12307;50.828;6.080;2022-09-09T05:16:08;24.50;62.00
24144;DHT22;12307;50.828;6.080;2022-09-09T05:18:36;24.50;62.00
24144;DHT22;12307;50.828;6.080;2022-09-09T05:21:02;24.50;62.00
24144;DHT22;12307;50.828;6.080;2022-09-09T05:23:29;24.50;62.00
24144;DHT22;12307;50.828;6.080;2022-09-09T05:25:56;24.50;62.00
24144;DHT22;12307;50.828;6.080;2022-09-09T05:28:22;24.50;61.90
24144;DHT22;12307;50.828;6.080;2022-09-09T05:30:55;24.50;62.00
24144;DHT22;12307;50.828;6.080;2022-09-09T05:33:21;24.50;62.80
24144;DHT22;12307;50.828;6.080;2022-09-09T05:35:46;24.50;62.00
24144;DHT22;12307;50.828;6.080;2022-09-09T05:38:12;24.50;62.00
24144;DHT22;12307;50.828;6.080;2022-09-09T05:40:39;24.50;62.10
24144;DHT22;12307;50.828;6.080;2022-09-09T05:43:12;24.50;62.00
24144;DHT22;12307;50.828;6.080;2022-09-09T05:45:38;24.50;62.00
24144;DHT22;12307;50.828;6.080;2022-09-09T05:48:04;24.50;62.00
24144;DHT22;12307;50.828;6.080;2022-09-09T05:50:29;24.50;62.00
24144;DHT22;12307;50.828;6.080;2022-09-09T05:52:55;24.50;62.00
24144;DHT22;12307;50.828;6.080;2022-09-09T05:55:21;24.50;61.90
24144;DHT22;12307;50.828;6.080;2022-09-09T05:57:49;24.50;62.00
24144;DHT22;12307;50.828;6.080;2022-09-09T06:00:17;24.50;62.00
24144;DHT22;12307;50.828;6.080;2022-09-09T06:02:43;24.50;61.90
24144;DHT22;12307;50.828;6.080;2022-09-09T06:05:09;24.50;61.90
24144;DHT22;12307;50.828;6.080;2022-09-09T06:07:36;24.50;61.90
24144;DHT22;12307;50.828;6.080;2022-09-09T06:10:03;24.50;61.80
24144;DHT22;12307;50.828;6.080;2022-09-09T06:12:29;24.50;61.80
24144;DHT22;12307;50.828;6.080;2022-09-09T06:14:56;24.50;61.80
24144;DHT22;12307;50.828;6.080;2022-09-09T06:17:22;24.50;61.90
24144;DHT22;12307;50.828;6.080;2022-09-09T06:19:47;24.50;61.80
24144;DHT22;12307;50.828;6.080;2022-09-09T06:22:13;24.50;61.80
24144;DHT22;12307;50.828;6.080;2022-09-09T06:24:39;24.50;61.80
24144;DHT22;12307;50.828;6.080;2022-09-09T06:27:04;24.50;61.90
24144;DHT22;12307;50.828;6.080;2022-09-09T06:29:30;24.50;61.80
24144;DHT22;12307;50.828;6.080;2022-09-09T06:31:57;24.50;61.80
24144;DHT22;12307;50.828;6.080;2022-09-09T06:34:24;24.50;61.80
24144;DHT22;12307;50.828;6.080;2022-09-09T06:36:49;24.50;61.80
24144;DHT22;12307;50.828;6.080;2022-09-09T06:39:16;24.50;61.80
24144;DHT22;12307;50.828;6.080;2022-09-09T06:41:42;24.50;61.70
24144;DHT22;12307;50.828;6.080;2022-09-09T06:44:08;24.50;61.80
24144;DHT22;12307;50.828;6.080;2022-09-09T06:46:33;24.50;61.70
24144;DHT22;12307;50.828;6.080;2022-09-09T06:49:02;24.50;61.80
24144;DHT22;12307;50.828;6.080;2022-09-09T06:51:29;24.50;61.80
24144;DHT22;12307;50.828;6.080;2022-09-09T06:53:57;24.50;61.80
24144;DHT22;12307;50.828;6.080;2022-09-09T06:56:25;24.50;61.70
24144;DHT22;12307;50.828;6.080;2022-09-09T06:58:52;24.50;61.60
24144;DHT22;12307;50.828;6.080;2022-09-09T07:01:19;24.50;61.60
24144;DHT22;12307;50.828;6.080;2022-09-09T07:03:46;24.50;61.80
24144;DHT22;12307;50.828;6.080;2022-09-09T07:06:16;24.50;61.80
24144;DHT22;12307;50.828;6.080;2022-09-09T07:08:43;24.50;62.60
24144;DHT22;12307;50.828;6.080;2022-09-09T07:11:09;24.50;62.00
24144;DHT22;12307;50.828;6.080;2022-09-09T07:13:35;24.50;62.90
24144;DHT22;12307;50.828;6.080;2022-09-09T07:16:03;24.50;63.30
24144;DHT22;12307;50.828;6.080;2022-09-09T07:18:29;24.50;63.10
24144;DHT22;12307;50.828;6.080;2022-09-09T07:20:56;24.50;63.60
24144;DHT22;12307;50.828;6.080;2022-09-09T07:23:24;24.50;63.80
24144;DHT22;12307;50.828;6.080;2022-09-09T07:25:49;24.50;63.90
24144;DHT22;12307;50.828;6.080;2022-09-09T07:28:15;24.50;62.60
24144;DHT22;12307;50.828;6.080;2022-09-09T07:30:41;24.50;62.40
24144;DHT22;12307;50.828;6.080;2022-09-09T07:33:08;24.50;62.40
24144;DHT22;12307;50.828;6.080;2022-09-09T07:35:35;24.50;62.30
24144;DHT22;12307;50.828;6.080;2022-09-09T07:38:03;24.50;62.50
24144;DHT22;12307;50.828;6.080;2022-09-09T07:40:34;24.50;62.00
24144;DHT22;12307;50.828;6.080;2022-09-09T07:43:01;24.50;62.10
24144;DHT22;12307;50.828;6.080;2022-09-09T07:45:27;24.50;61.80
24144;DHT22;12307;50.828;6.080;2022-09-09T07:47:55;24.60;62.70
24144;DHT22;12307;50.828;6.080;2022-09-09T07:50:22;24.60;62.30
24144;DHT22;12307;50.828;6.080;2022-09-09T07:52:49;24.70;61.50
24144;DHT22;12307;50.828;6.080;2022-09-09T07:55:14;24.70;61.60
24144;DHT22;12307;50.828;6.080;2022-09-09T07:57:42;24.70;61.40
24144;DHT22;12307;50.828;6.080;2022-09-09T08:00:09;24.60;61.80
24144;DHT22;12307;50.828;6.080;2022-09-09T08:02:35;24.60;61.80
24144;DHT22;12307;50.828;6.080;2022-09-09T08:05:01;24.70;61.60
24144;DHT22;12307;50.828;6.080;2022-09-09T08:07:27;24.80;61.20
24144;DHT22;12307;50.828;6.080;2022-09-09T08:09:53;24.90;60.60
24144;DHT22;12307;50.828;6.080;2022-09-09T08:12:21;25.00;60.30
24144;DHT22;12307;50.828;6.080;2022-09-09T08:14:48;25.40;59.40
24144;DHT22;12307;50.828;6.080;2022-09-09T08:17:14;25.80;58.60
24144;DHT22;12307;50.828;6.080;2022-09-09T08:19:40;26.10;58.10
24144;DHT22;12307;50.828;6.080;2022-09-09T08:22:05;26.30;57.30
24144;DHT22;12307;50.828;6.080;2022-09-09T08:24:31;26.40;57.10
24144;DHT22;12307;50.828;6.080;2022-09-09T08:26:57;26.20;57.20
24144;DHT22;12307;50.828;6.080;2022-09-09T08:29:23;26.10;57.60
24144;DHT22;12307;50.828;6.080;2022-09-09T08:31:51;25.90;58.00
24144;DHT22;12307;50.828;6.080;2022-09-09T08:34:19;25.70;58.60
24144;DHT22;12307;50.828;6.080;2022-09-09T08:36:46;25.70;58.50
24144;DHT22;12307;50.828;6.080;2022-09-09T08:39:13;25.60;58.40
24144;DHT22;12307;50.828;6.080;2022-09-09T08:41:56;25.60;58.40
24144;DHT22;12307;50.828;6.080;2022-09-09T08:44:41;25.80;58.10
24144;DHT22;12307;50.828;6.080;2022-09-09T08:47:18;25.90;57.80
24144;DHT22;12307;50.828;6.080;2022-09-09T08:49:58;26.30;57.30
24144;DHT22;12307;50.828;6.080;2022-09-09T08:52:28;26.80;56.10
24144;DHT22;12307;50.828;6.080;2022-09-09T08:55:03;27.20;55.00
24144;DHT22;12307;50.828;6.080;2022-09-09T08:57:31;27.40;54.30
24144;DHT22;12307;50.828;6.080;2022-09-09T08:59:58;27.50;54.00
24144;DHT22;12307;50.828;6.080;2022-09-09T09:02:31;27.60;53.80
24144;DHT22;12307;50.828;6.080;2022-09-09T09:05:14;27.40;53.80
24144;DHT22;12307;50.828;6.080;2022-09-09T09:07:55;27.20;54.20
24144;DHT22;12307;50.828;6.080;2022-09-09T09:10:34;27.10;54.50
24144;DHT22;12307;50.828;6.080;2022-09-09T09:13:03;26.80;54.90
24144;DHT22;12307;50.828;6.080;2022-09-09T09:15:33;26.70;55.10
24144;DHT22;12307;50.828;6.080;2022-09-09T09:18:03;26.70;55.10
24144;DHT22;12307;50.828;6.080;2022-09-09T09:20:38;26.70;54.90
24144;DHT22;12307;50.828;6.080;2022-09-09T09:23:12;26.60;54.90
24144;DHT22;12307;50.828;6.080;2022-09-09T09:25:42;26.60;55.10
24144;DHT22;12307;50.828;6.080;2022-09-09T09:28:13;26.50;55.20
24144;DHT22;12307;50.828;6.080;2022-09-09T09:30:45;26.40;55.20
24144;DHT22;12307;50.828;6.080;2022-09-09T09:33:19;26.30;55.50
24144;DHT22;12307;50.828;6.080;2022-09-09T09:35:46;26.30;55.60
24144;DHT22;12307;50.828;6.080;2022-09-09T09:38:17;26.20;55.60
24144;DHT22;12307;50.828;6.080;2022-09-09T09:40:49;26.20;55.50
24144;DHT22;12307;50.828;6.080;2022-09-09T09:43:19;26.10;55.70
24144;DHT22;12307;50.828;6.080;2022-09-09T09:45:45;26.00;55.80
24144;DHT22;12307;50.828;6.080;2022-09-09T09:48:12;26.00;55.70
24144;DHT22;12307;50.828;6.080;2022-09-09T09:50:47;25.90;55.90
24144;DHT22;12307;50.828;6.080;2022-09-09T09:53:19;25.90;56.10
24144;DHT22;12307;50.828;6.080;2022-09-09T09:55:52;25.80;56.20
24144;DHT22;12307;50.828;6.080;2022-09-09T09:58:18;25.70;55.90
24144;DHT22;12307;50.828;6.080;2022-09-09T10:00:48;25.70;56.10
24144;DHT22;12307;50.828;6.080;2022-09-09T10:03:21;25.60;56.10
24144;DHT22;12307;50.828;6.080;2022-09-09T10:05:49;25.60;56.10
24144;DHT22;12307;50.828;6.080;2022-09-09T10:08:16;25.50;56.20
24144;DHT22;12307;50.828;6.080;2022-09-09T10:10:52;25.40;56.30
24144;DHT22;12307;50.828;6.080;2022-09-09T10:13:27;25.40;56.60
24144;DHT22;12307;50.828;6.080;2022-09-09T10:16:04;25.40;56.70
24144;DHT22;12307;50.828;6.080;2022-09-09T10:18:47;25.30;56.80
24144;DHT22;12307;50.828;6.080;2022-09-09T10:21:32;25.30;57.00
24144;DHT22;12307;50.828;6.080;2022-09-09T10:24:18;25.30;57.20
24144;DHT22;12307;50.828;6.080;2022-09-09T10:26:52;25.20;57.30
24144;DHT22;12307;50.828;6.080;2022-09-09T10:29:31;25.20;57.60
24144;DHT22;12307;50.828;6.080;2022-09-09T10:32:10;25.10;57.90
24144;DHT22;12307;50.828;6.080;2022-09-09T10:34:55;25.10;58.00
24144;DHT22;12307;50.828;6.080;2022-09-09T10:37:30;25.10;58.20
24144;DHT22;12307;50.828;6.080;2022-09-09T10:40:02;25.10;58.30
24144;DHT22;12307;50.828;6.080;2022-09-09T10:42:31;25.10;58.40
24144;DHT22;12307;50.828;6.080;2022-09-09T10:45:07;25.10;58.40
24144;DHT22;12307;50.828;6.080;2022-09-09T10:48:01;25.10;58.50
24144;DHT22;12307;50.828;6.080;2022-09-09T10:50:53;25.10;58.60
24144;DHT22;12307;50.828;6.080;2022-09-09T10:53:34;25.10;58.70
24144;DHT22;12307;50.828;6.080;2022-09-09T10:56:06;25.10;58.90
24144;DHT22;12307;50.828;6.080;2022-09-09T10:58:37;25.10;59.00
24144;DHT22;12307;50.828;6.080;2022-09-09T11:01:13;25.10;59.10
24144;DHT22;12307;50.828;6.080;2022-09-09T11:03:42;25.10;59.20
24144;DHT22;12307;50.828;6.080;2022-09-09T11:06:12;25.10;59.20
24144;DHT22;12307;50.828;6.080;2022-09-09T11:08:41;25.10;59.30
24144;DHT22;12307;50.828;6.080;2022-09-09T11:11:12;25.20;59.60
24144;DHT22;12307;50.828;6.080;2022-09-09T11:13:42;25.20;59.40
24144;DHT22;12307;50.828;6.080;2022-09-09T11:16:19;25.30;59.30
24144;DHT22;12307;50.828;6.080;2022-09-09T11:18:46;25.30;59.20
24144;DHT22;12307;50.828;6.080;2022-09-09T11:21:17;25.30;59.10
24144;DHT22;12307;50.828;6.080;2022-09-09T11:23:50;25.30;59.10
24144;DHT22;12307;50.828;6.080;2022-09-09T11:26:23;25.40;58.90
24144;DHT22;12307;50.828;6.080;2022-09-09T11:29:00;25.40;59.00
24144;DHT22;12307;50.828;6.080;2022-09-09T11:31:44;25.40;58.80
24144;DHT22;12307;50.828;6.080;2022-09-09T11:34:32;25.40;58.70
24144;DHT22;12307;50.828;6.080;2022-09-09T11:37:13;25.40;58.60
24144;DHT22;12307;50.828;6.080;2022-09-09T11:40:04;25.40;58.60
24144;DHT22;12307;50.828;6.080;2022-09-09T11:42:33;25.40;58.60
24144;DHT22;12307;50.828;6.080;2022-09-09T11:45:09;25.40;58.70
24144;DHT22;12307;50.828;6.080;2022-09-09T11:47:36;25.40;58.70
24144;DHT22;12307;50.828;6.080;2022-09-09T11:50:10;25.30;58.70
24144;DHT22;12307;50.828;6.080;2022-09-09T11:52:39;25.30;58.80
24144;DHT22;12307;50.828;6.080;2022-09-09T11:55:12;25.20;58.80
24144;DHT22;12307;50.828;6.080;2022-09-09T11:57:57;25.20;58.80
24144;DHT22;12307;50.828;6.080;2022-09-09T12:00:34;25.20;58.90
24144;DHT22;12307;50.828;6.080;2022-09-09T12:03:01;25.20;59.00
24144;DHT22;12307;50.828;6.080;2022-09-09T12:05:36;25.20;59.20
24144;DHT22;12307;50.828;6.080;2022-09-09T12:08:04;25.10;59.10
24144;DHT22;12307;50.828;6.080;2022-09-09T12:10:33;25.10;59.20
24144;DHT22;12307;50.828;6.080;2022-09-09T12:13:09;25.10;59.20
24144;DHT22;12307;50.828;6.080;2022-09-09T12:15:47;25.10;59.30
24144;DHT22;12307;50.828;6.080;2022-09-09T12:18:15;25.10;59.30
24144;DHT22;12307;50.828;6.080;2022-09-09T12:20:55;25.10;59.20
24144;DHT22;12307;50.828;6.080;2022-09-09T12:23:31;25.10;59.30
24144;DHT22;12307;50.828;6.080;2022-09-09T12:26:12;25.10;59.80
24144;DHT22;12307;50.828;6.080;2022-09-09T12:28:52;25.10;59.50
24144;DHT22;12307;50.828;6.080;2022-09-09T12:31:22;25.10;59.40
24144;DHT22;12307;50.828;6.080;2022-09-09T12:33:50;25.10;59.50
24144;DHT22;12307;50.828;6.080;2022-09-09T12:36:20;25.10;59.50
24144;DHT22;12307;50.828;6.080;2022-09-09T12:38:46;25.10;59.50
24144;DHT22;12307;50.828;6.080;2022-09-09T12:41:21;25.10;60.20
24144;DHT22;12307;50.828;6.080;2022-09-09T12:43:47;25.10;59.60
24144;DHT22;12307;50.828;6.080;2022-09-09T12:46:23;25.10;59.60
24144;DHT22;12307;50.828;6.080;2022-09-09T12:48:52;25.10;59.80
24144;DHT22;12307;50.828;6.080;2022-09-09T12:51:23;25.10;60.00
24144;DHT22;12307;50.828;6.080;2022-09-09T12:53:51;25.00;60.10
24144;DHT22;12307;50.828;6.080;2022-09-09T12:56:22;25.00;60.50
24144;DHT22;12307;50.828;6.080;2022-09-09T12:58:51;25.00;60.70
24144;DHT22;12307;50.828;6.080;2022-09-09T13:01:22;25.00;60.80
24144;DHT22;12307;50.828;6.080;2022-09-09T13:03:48;25.10;60.90
24144;DHT22;12307;50.828;6.080;2022-09-09T13:06:20;25.10;61.10
24144;DHT22;12307;50.828;6.080;2022-09-09T13:08:46;25.10;61.40
24144;DHT22;12307;50.828;6.080;2022-09-09T13:11:15;25.10;61.50
24144;DHT22;12307;50.828;6.080;2022-09-09T13:13:50;25.10;61.40
24144;DHT22;12307;50.828;6.080;2022-09-09T13:16:20;25.10;61.70
24144;DHT22;12307;50.828;6.080;2022-09-09T13:18:47;25.10;61.70
24144;DHT22;12307;50.828;6.080;2022-09-09T13:21:13;25.10;61.90
24144;DHT22;12307;50.828;6.080;2022-09-09T13:23:39;25.10;62.00
24144;DHT22;12307;50.828;6.080;2022-09-09T13:26:06;25.10;61.90
24144;DHT22;12307;50.828;6.080;2022-09-09T13:28:45;25.10;62.00
24144;DHT22;12307;50.828;6.080;2022-09-09T13:31:20;25.00;61.90
24144;DHT22;12307;50.828;6.080;2022-09-09T13:33:47;25.10;62.10
24144;DHT22;12307;50.828;6.080;2022-09-09T13:36:13;25.00;61.70
24144;DHT22;12307;50.828;6.080;2022-09-09T13:38:54;25.00;61.80
24144;DHT22;12307;50.828;6.080;2022-09-09T13:41:21;25.10;61.80
24144;DHT22;12307;50.828;6.080;2022-09-09T13:43:49;25.00;61.70
24144;DHT22;12307;50.828;6.080;2022-09-09T13:46:27;25.10;61.70
24144;DHT22;12307;50.828;6.080;2022-09-09T13:48:55;25.00;61.70
24144;DHT22;12307;50.828;6.080;2022-09-09T13:51:28;25.00;61.70
24144;DHT22;12307;50.828;6.080;2022-09-09T13:53:55;25.10;61.60
24144;DHT22;12307;50.828;6.080;2022-09-09T13:56:20;25.10;61.70
24144;DHT22;12307;50.828;6.080;2022-09-09T13:58:46;25.00;61.80
24144;DHT22;12307;50.828;6.080;2022-09-09T14:01:13;25.00;61.90
24144;DHT22;12307;50.828;6.080;2022-09-09T14:03:39;25.00;62.30
24144;DHT22;12307;50.828;6.080;2022-09-09T14:06:04;24.80;62.40
24144;DHT22;12307;50.828;6.080;2022-09-09T14:08:30;24.50;62.10
24144;DHT22;12307;50.828;6.080;2022-09-09T14:11:02;24.40;62.80
24144;DHT22;12307;50.828;6.080;2022-09-09T14:13:28;24.30;63.70
24144;DHT22;12307;50.828;6.080;2022-09-09T14:15:53;24.20;63.40
24144;DHT22;12307;50.828;6.080;2022-09-09T14:18:20;24.20;63.40
24144;DHT22;12307;50.828;6.080;2022-09-09T14:20:47;24.10;63.40
24144;DHT22;12307;50.828;6.080;2022-09-09T14:23:13;24.00;64.00
24144;DHT22;12307;50.828;6.080;2022-09-09T14:25:40;23.80;64.50
24144;DHT22;12307;50.828;6.080;2022-09-09T14:28:08;23.80;64.90
24144;DHT22;12307;50.828;6.080;2022-09-09T14:30:34;23.70;64.70
24144;DHT22;12307;50.828;6.080;2022-09-09T14:33:00;23.70;64.40
24144;DHT22;12307;50.828;6.080;2022-09-09T14:35:27;23.50;65.00
24144;DHT22;12307;50.828;6.080;2022-09-09T14:37:53;23.50;65.20
24144;DHT22;12307;50.828;6.080;2022-09-09T14:40:19;23.40;65.70
24144;DHT22;12307;50.828;6.080;2022-09-09T14:42:44;23.40;66.10
24144;DHT22;12307;50.828;6.080;2022-09-09T14:45:11;23.30;66.60
24144;DHT22;12307;50.828;6.080;2022-09-09T14:47:36;23.30;68.10
24144;DHT22;12307;50.828;6.080;2022-09-09T14:50:04;23.30;68.60
24144;DHT22;12307;50.828;6.080;2022-09-09T14:52:31;23.20;69.00
24144;DHT22;12307;50.828;6.080;2022-09-09T14:54:57;23.20;69.40
24144;DHT22;12307;50.828;6.080;2022-09-09T14:57:23;23.30;69.90
24144;DHT22;12307;50.828;6.080;2022-09-09T14:59:48;23.30;70.10
24144;DHT22;12307;50.828;6.080;2022-09-09T15:02:15;23.30;70.20
24144;DHT22;12307;50.828;6.080;2022-09-09T15:04:41;23.20;69.80
24144;DHT22;12307;50.828;6.080;2022-09-09T15:07:06;23.20;70.00
24144;DHT22;12307;50.828;6.080;2022-09-09T15:09:33;23.20;70.00
24144;DHT22;12307;50.828;6.080;2022-09-09T15:11:59;23.30;70.10
24144;DHT22;12307;50.828;6.080;2022-09-09T15:14:26;23.20;70.10
24144;DHT22;12307;50.828;6.080;2022-09-09T15:16:52;23.30;70.40
24144;DHT22;12307;50.828;6.080;2022-09-09T15:19:17;23.30;70.90
24144;DHT22;12307;50.828;6.080;2022-09-09T15:21:43;23.30;71.10
24144;DHT22;12307;50.828;6.080;2022-09-09T15:24:09;23.30;71.30
24144;DHT22;12307;50.828;6.080;2022-09-09T15:26:36;23.30;71.30
24144;DHT22;12307;50.828;6.080;2022-09-09T15:29:03;23.20;71.40
24144;DHT22;12307;50.828;6.080;2022-09-09T15:31:30;23.20;71.30
24144;DHT22;12307;50.828;6.080;2022-09-09T15:33:58;23.20;71.10
24144;DHT22;12307;50.828;6.080;2022-09-09T15:36:29;23.20;70.80
24144;DHT22;12307;50.828;6.080;2022-09-09T15:38:56;23.30;70.80
24144;DHT22;12307;50.828;6.080;2022-09-09T15:41:22;23.30;70.80
24144;DHT22;12307;50.828;6.080;2022-09-09T15:43:50;23.10;70.80
24144;DHT22;12307;50.828;6.080;2022-09-09T15:46:23;23.00;71.00
24144;DHT22;12307;50.828;6.080;2022-09-09T15:48:53;22.90;71.00